createdAt,value
2019-04-20T00:00:13.219Z,59.93
2019-04-20T00:01:11.452Z,59.9
2019-04-20T00:02:14.166Z,59.8
2019-04-20T00:03:07.644Z,59.8
2019-04-20T00:04:09.800Z,59.71
2019-04-20T00:05:05.279Z,60
2019-04-20T00:06:03.546Z,59.8
2019-04-20T00:07:02.056Z,59.8
2019-04-20T00:08:07.646Z,60
2019-04-20T00:09:07.212Z,59.8
2019-04-20T00:10:05.129Z,59.9
2019-04-20T00:11:03.933Z,59.9
2019-04-20T00:12:03.705Z,60
2019-04-20T00:13:07.661Z,59.8
2019-04-20T00:14:01.771Z,59.61
2019-04-20T00:14:52.090Z,58.94
2019-04-20T00:15:49.805Z,59.23
2019-04-20T00:16:48.459Z,59.33
2019-04-20T00:17:52.178Z,59.04
2019-04-20T00:18:50.194Z,59.13
2019-04-20T00:19:48.972Z,58.65
2019-04-20T00:20:43.787Z,59.13
2019-04-20T00:21:46.865Z,59.04
2019-04-20T00:22:45.866Z,59.06
2019-04-20T00:23:41.942Z,58.87
2019-04-20T00:24:39.227Z,58.97
2019-04-20T00:25:46.918Z,59.16
2019-04-20T00:27:04.315Z,58.59
2019-04-20T00:27:55.315Z,58.78
2019-04-20T00:28:50.671Z,58.75
2019-04-20T00:29:49.236Z,58.87
2019-04-20T00:30:50.180Z,58.75
2019-04-20T00:31:42.698Z,58.69
2019-04-20T00:32:41.110Z,58.59
2019-04-20T00:33:39.426Z,58.87
2019-04-20T00:34:29.642Z,58.87
2019-04-20T00:35:23.019Z,58.78
2019-04-20T00:36:22.090Z,58.69
2019-04-20T00:37:19.424Z,58.97
2019-04-20T00:38:18.150Z,57.92
2019-04-20T00:39:18.500Z,57.82
2019-04-20T00:40:15.387Z,57.98
2019-04-20T00:41:16.852Z,58.69
2019-04-20T00:42:14.864Z,58.87
2019-04-20T00:43:12.909Z,58.84
2019-04-20T00:44:15.758Z,58.84
2019-04-20T00:45:15.828Z,58.65
2019-04-20T00:46:16.472Z,58.75
2019-04-20T00:47:15.383Z,58.94
2019-04-20T00:48:09.905Z,59.23
2019-04-20T00:49:20.481Z,59.23
2019-04-20T00:50:16.420Z,59.13
2019-04-20T00:51:20.893Z,58.69
2019-04-20T00:53:06.610Z,59.13
2019-04-20T00:53:58.562Z,58.75
2019-04-20T00:54:55.893Z,58.84
2019-04-20T00:55:53.525Z,58.84
2019-04-20T00:57:05.666Z,58.75
2019-04-20T00:57:56.865Z,59.42
2019-04-20T00:59:02.320Z,59.33
2019-04-20T01:00:21.096Z,59.52
2019-04-20T01:01:06.562Z,59.04
2019-04-20T01:02:03.319Z,58.75
2019-04-20T01:02:53.943Z,58.46
2019-04-20T01:03:54.683Z,58.75
2019-04-20T01:04:57.685Z,59.23
2019-04-20T01:05:58.008Z,59.13
2019-04-20T01:06:53.318Z,59.52
2019-04-20T01:07:41.890Z,59.42
2019-04-20T01:08:36.198Z,59.8
2019-04-20T01:09:35.011Z,60
2019-04-20T01:10:38.161Z,59.71
2019-04-20T01:11:37.499Z,59.42
2019-04-20T01:12:33.712Z,59.61
2019-04-20T01:13:30.170Z,59.52
2019-04-20T01:14:34.737Z,59.8
2019-04-20T01:15:37.423Z,59.52
2019-04-20T01:16:35.267Z,59.52
2019-04-20T01:17:24.209Z,59.9
2019-04-20T01:18:22.767Z,60.09
2019-04-20T01:19:21.330Z,59.9
2019-04-20T01:20:22.554Z,60.19
2019-04-20T01:21:22.920Z,60.38
2019-04-20T01:22:20.513Z,60.19
2019-04-20T01:23:19.360Z,60
2019-04-20T01:24:19.938Z,60.67
2019-04-20T01:25:18.015Z,60.86
2019-04-20T01:26:16.210Z,61.05
2019-04-20T01:27:23.610Z,60.76
2019-04-20T01:28:27.333Z,60.76
2019-04-20T01:29:19.114Z,61.11
2019-04-20T01:30:14.511Z,61.79
2019-04-20T01:31:14.576Z,61.98
2019-04-20T01:32:14.885Z,61.6
2019-04-20T01:33:15.874Z,61.5
2019-04-20T01:34:08.126Z,61.98
2019-04-20T01:35:07.010Z,61.69
2019-04-20T01:36:19.211Z,61.6
2019-04-20T01:37:12.975Z,61.88
2019-04-20T01:38:11.156Z,62.07
2019-04-20T01:39:07.382Z,62.07
2019-04-20T01:39:55.780Z,61.98
2019-04-20T01:40:51.190Z,62.65
2019-04-20T01:41:49.974Z,62.26
2019-04-20T01:42:48.924Z,62.46
2019-04-20T01:43:48.057Z,62.36
2019-04-20T01:44:49.085Z,62.84
2019-04-20T01:45:45.686Z,62.62
2019-04-20T01:46:46.495Z,62.71
2019-04-20T01:47:46.109Z,62.71
2019-04-20T01:48:41.875Z,62.81
2019-04-20T01:49:40.595Z,62.81
2019-04-20T01:50:43.461Z,62.81
2019-04-20T01:51:46.824Z,62.52
2019-04-20T01:52:46.695Z,62.9
2019-04-20T01:53:56.448Z,62.71
2019-04-20T01:54:52.135Z,62.71
2019-04-20T01:55:45.336Z,62.52
2019-04-20T01:56:43.308Z,62.52
2019-04-20T01:57:38.554Z,62.04
2019-04-20T01:58:46.000Z,62.33
2019-04-20T01:59:34.343Z,62.04
2019-04-20T02:00:30.647Z,62.71
2019-04-20T02:01:27.961Z,62.43
2019-04-20T02:02:24.350Z,62.33
2019-04-20T02:03:28.994Z,62.11
2019-04-20T02:04:27.073Z,62.59
2019-04-20T02:05:24.591Z,62.3
2019-04-20T02:06:20.007Z,62.49
2019-04-20T02:07:18.060Z,62.59
2019-04-20T02:08:19.560Z,62.68
2019-04-20T02:09:17.104Z,62.77
2019-04-20T02:10:14.812Z,62.3
2019-04-20T02:11:18.444Z,62.4
2019-04-20T02:12:15.365Z,62.4
2019-04-20T02:13:09.338Z,62.4
2019-04-20T02:14:08.954Z,61.44
2019-04-20T02:15:07.979Z,61.91
2019-04-20T02:16:11.211Z,62.01
2019-04-20T02:17:09.442Z,61.82
2019-04-20T02:18:14.793Z,61.44
2019-04-20T02:19:13.004Z,61.63
2019-04-20T02:20:15.431Z,61.25
2019-04-20T02:21:14.998Z,61.44
2019-04-20T02:22:09.573Z,61.34
2019-04-20T02:23:07.244Z,61.44
2019-04-20T02:23:57.702Z,61.94
2019-04-20T02:24:51.539Z,61.37
2019-04-20T02:25:50.318Z,61.47
2019-04-20T02:26:50.026Z,61.94
2019-04-20T02:27:53.130Z,61.47
2019-04-20T02:29:12.047Z,61.76
2019-04-20T02:30:13.125Z,61.85
2019-04-20T02:32:15.167Z,61.57
2019-04-20T02:33:34.257Z,61.66
2019-04-20T02:34:14.826Z,61.15
2019-04-20T02:35:07.018Z,61.91
2019-04-20T02:36:18.806Z,61.91
2019-04-20T02:37:23.415Z,62.2
2019-04-20T02:38:21.382Z,62.01
2019-04-20T02:39:20.746Z,62.11
2019-04-20T02:41:57.089Z,62.49
2019-04-20T02:45:57.179Z,62.3
2019-04-20T02:47:06.730Z,62.11
2019-04-20T02:48:00.671Z,62.77
2019-04-20T02:49:09.735Z,62.49
2019-04-20T02:49:56.257Z,62.74
2019-04-20T02:50:58.189Z,62.65
2019-04-20T02:52:12.114Z,62.46
2019-04-20T02:54:18.346Z,62.3
2019-04-20T02:55:22.330Z,62.97
2019-04-20T02:56:21.652Z,62.77
2019-04-20T02:59:32.836Z,63.23
2019-04-20T03:00:11.907Z,62.94
2019-04-20T03:01:03.554Z,63.6
2019-04-20T03:01:54.560Z,63.51
2019-04-20T03:02:48.498Z,63.8
2019-04-20T03:03:43.160Z,63.7
2019-04-20T03:04:42.175Z,64.28
2019-04-20T03:05:41.107Z,63.7
2019-04-20T03:06:43.526Z,63.32
2019-04-20T03:07:49.934Z,63.23
2019-04-20T03:08:51.000Z,63.32
2019-04-20T03:09:43.239Z,62.65
2019-04-20T03:10:52.232Z,62.74
2019-04-20T03:11:52.604Z,62.84
2019-04-20T03:12:42.575Z,63.13
2019-04-20T03:13:41.142Z,62.94
2019-04-20T03:14:34.544Z,62.74
2019-04-20T03:15:37.355Z,63.03
2019-04-20T03:16:34.429Z,63.23
2019-04-20T03:17:38.285Z,62.87
2019-04-20T03:18:34.842Z,62.37
2019-04-20T03:19:26.827Z,62.46
2019-04-20T03:20:35.893Z,63.03
2019-04-20T03:21:31.265Z,62.65
2019-04-20T03:22:39.174Z,62.27
2019-04-20T03:23:35.142Z,62.84
2019-04-20T03:24:30.867Z,62.55
2019-04-20T03:25:29.467Z,62.55
2019-04-20T03:26:20.817Z,62.84
2019-04-20T03:27:18.225Z,62.65
2019-04-20T03:28:18.100Z,62.65
2019-04-20T03:29:12.617Z,62.55
2019-04-20T03:30:45.268Z,62.94
2019-04-20T03:31:40.775Z,63.42
2019-04-20T03:32:38.040Z,62.84
2019-04-20T03:35:27.617Z,63.76
2019-04-20T03:36:17.815Z,63.8
2019-04-20T03:37:12.610Z,64.05
2019-04-20T03:38:10.301Z,64.25
2019-04-20T03:39:01.121Z,63.67
2019-04-20T03:39:56.577Z,63.8
2019-04-20T03:40:53.918Z,64.09
2019-04-20T03:41:46.698Z,63.86
2019-04-20T03:42:40.441Z,63.57
2019-04-20T03:43:40.122Z,63.89
2019-04-20T03:44:39.329Z,63.96
2019-04-20T03:45:44.358Z,64.09
2019-04-20T03:46:43.397Z,63.6
2019-04-20T03:47:41.229Z,63.89
2019-04-20T03:48:46.141Z,64.18
2019-04-20T03:49:54.460Z,63.7
2019-04-20T03:50:50.238Z,63.99
2019-04-20T03:51:46.616Z,63.8
2019-04-20T03:52:42.747Z,63.6
2019-04-20T03:53:43.142Z,63.8
2019-04-20T03:54:34.270Z,64.09
2019-04-20T03:55:39.273Z,63.89
2019-04-20T03:56:38.884Z,63.7
2019-04-20T03:57:40.287Z,63.89
2019-04-20T03:58:37.314Z,64.18
2019-04-20T03:59:36.632Z,64.18
2019-04-20T04:00:35.324Z,64.18
2019-04-20T04:01:47.213Z,63.89
2019-04-20T04:02:45.245Z,63.6
2019-04-20T04:03:40.731Z,63.89
2019-04-20T04:04:33.455Z,63.8
2019-04-20T04:05:27.322Z,63.99
2019-04-20T04:06:17.425Z,63.89
2019-04-20T04:07:15.242Z,63.7
2019-04-20T04:08:14.556Z,63.96
2019-04-20T04:09:16.002Z,64.34
2019-04-20T04:10:15.667Z,64.47
2019-04-20T04:11:19.840Z,64.47
2019-04-20T04:12:12.072Z,63.99
2019-04-20T04:12:58.872Z,63.89
2019-04-20T04:13:57.219Z,63.89
2019-04-20T04:14:55.798Z,63.7
2019-04-20T04:15:59.013Z,63.8
2019-04-20T04:16:57.286Z,63.6
2019-04-20T04:17:53.037Z,64.18
2019-04-20T04:19:01.296Z,64.09
2019-04-20T04:19:57.189Z,63.6
2019-04-20T04:20:53.907Z,64.18
2019-04-20T04:22:01.237Z,63.8
2019-04-20T04:23:03.542Z,63.6
2019-04-20T04:23:58.536Z,63.8
2019-04-20T04:24:56.850Z,63.89
2019-04-20T04:25:59.097Z,63.8
2019-04-20T04:26:54.723Z,64.09
2019-04-20T04:27:56.891Z,63.8
2019-04-20T04:28:53.103Z,64.18
2019-04-20T04:29:50.436Z,63.76
2019-04-20T04:30:54.362Z,64.28
2019-04-20T04:32:00.976Z,63.8
2019-04-20T04:33:06.573Z,63.76
2019-04-20T04:34:48.451Z,63.8
2019-04-20T04:35:41.152Z,63.99
2019-04-20T04:36:49.646Z,63.7
2019-04-20T04:37:45.552Z,63.8
2019-04-20T04:39:42.680Z,63.8
2019-04-20T04:40:49.118Z,63.8
2019-04-20T04:41:36.011Z,63.89
2019-04-20T04:42:40.887Z,63.99
2019-04-20T04:43:36.855Z,63.8
2019-04-20T04:44:28.704Z,63.8
2019-04-20T04:45:17.386Z,63.99
2019-04-20T04:46:12.791Z,63.8
2019-04-20T04:47:13.357Z,63.51
2019-04-20T04:48:14.562Z,63.7
2019-04-20T04:49:18.211Z,64.62
2019-04-20T04:50:12.929Z,64.18
2019-04-20T04:51:13.527Z,63.99
2019-04-20T04:52:10.300Z,64.28
2019-04-20T04:53:09.767Z,63.8
2019-04-20T04:54:13.671Z,63.89
2019-04-20T04:55:10.720Z,63.8
2019-04-20T04:56:05.305Z,63.8
2019-04-20T04:56:58.666Z,63.89
2019-04-20T04:57:58.200Z,63.89
2019-04-20T04:58:56.164Z,63.89
2019-04-20T04:59:55.256Z,63.32
2019-04-20T05:00:56.828Z,63.23
2019-04-20T05:01:53.785Z,63.35
2019-04-20T05:02:55.392Z,63.06
2019-04-20T05:04:14.476Z,63.13
2019-04-20T05:05:09.931Z,62.59
2019-04-20T05:06:00.290Z,62.46
2019-04-20T05:06:57.852Z,62.94
2019-04-20T05:07:55.463Z,63.32
2019-04-20T05:08:47.274Z,63.32
2019-04-20T05:09:41.448Z,62.94
2019-04-20T05:10:39.382Z,62.65
2019-04-20T05:11:38.564Z,62.94
2019-04-20T05:12:38.545Z,62.55
2019-04-20T05:13:41.570Z,62.65
2019-04-20T05:14:45.945Z,63.13
2019-04-20T05:15:48.270Z,63.13
2019-04-20T05:16:54.469Z,63.8
2019-04-20T05:17:49.928Z,64.18
2019-04-20T05:18:49.879Z,64.18
2019-04-20T05:19:47.315Z,63.8
2019-04-20T05:20:46.405Z,63.99
2019-04-20T05:21:44.454Z,64.37
2019-04-20T05:22:40.791Z,64.28
2019-04-20T05:25:21.980Z,64.37
2019-04-20T05:26:19.514Z,64.28
2019-04-20T05:27:18.887Z,64.18
2019-04-20T05:28:12.927Z,63.7
2019-04-20T05:29:05.341Z,63.89
2019-04-20T05:29:56.989Z,63.73
2019-04-20T05:30:59.756Z,63.8
2019-04-20T05:31:58.478Z,63.89
2019-04-20T05:32:59.355Z,63.89
2019-04-20T05:34:14.226Z,63.7
2019-04-20T05:35:10.734Z,64.09
2019-04-20T05:36:05.472Z,64.09
2019-04-20T05:47:00.781Z,64.47
2019-04-20T05:47:52.267Z,64.56
2019-04-20T05:48:56.003Z,64.75
2019-04-20T05:49:53.577Z,64.85
2019-04-20T05:50:52.680Z,64.66
2019-04-20T05:51:52.422Z,63.99
2019-04-20T05:52:55.981Z,63.73
2019-04-20T05:53:49.853Z,62.77
2019-04-20T05:54:50.459Z,63.16
2019-04-20T05:55:42.887Z,62.77
2019-04-20T05:56:49.942Z,62.77
2019-04-20T05:57:41.452Z,62.77
2019-04-20T05:58:44.633Z,63.26
2019-04-20T05:59:40.767Z,63.64
2019-04-20T06:00:47.254Z,63.93
2019-04-20T06:01:37.786Z,63.8
2019-04-20T06:02:36.208Z,64.5
2019-04-20T06:03:31.876Z,63.57
2019-04-20T06:04:45.921Z,63.39
2019-04-20T06:05:34.498Z,63.19
2019-04-20T06:06:31.448Z,63.48
2019-04-20T06:07:29.303Z,63.54
2019-04-20T06:08:37.091Z,63.96
2019-04-20T06:09:27.359Z,63.39
2019-04-20T06:10:31.519Z,64.05
2019-04-20T06:11:25.446Z,63.86
2019-04-20T06:12:25.003Z,63.39
2019-04-20T06:13:17.131Z,63.19
2019-04-20T06:14:09.926Z,63.19
2019-04-20T06:15:11.556Z,62.62
2019-04-20T06:16:12.726Z,62.93
2019-04-20T06:17:20.774Z,63.22
2019-04-20T06:18:11.945Z,62.84
2019-04-20T06:20:10.969Z,62.84
2019-04-20T06:21:19.407Z,63.39
2019-04-20T06:22:18.537Z,63.96
2019-04-20T06:23:11.688Z,62.84
2019-04-20T06:24:08.078Z,62.55
2019-04-20T06:25:21.676Z,62.74
2019-04-20T06:26:18.997Z,62.65
2019-04-20T06:27:03.088Z,62.74
2019-04-20T06:28:01.765Z,63.03
2019-04-20T06:28:53.651Z,62.65
2019-04-20T06:29:55.631Z,62.26
2019-04-20T06:30:51.993Z,62.74
2019-04-20T06:31:57.284Z,62.74
2019-04-20T06:32:59.089Z,62.84
2019-04-20T06:34:07.310Z,62.36
2019-04-20T06:34:53.245Z,62.26
2019-04-20T06:36:07.219Z,62.36
2019-04-20T06:36:49.504Z,62.26
2019-04-20T06:37:53.584Z,62.46
2019-04-20T06:38:55.586Z,62.17
2019-04-20T06:39:46.281Z,62.46
2019-04-20T06:40:53.810Z,62.55
2019-04-20T06:41:59.781Z,62.59
2019-04-20T06:42:39.428Z,61.53
2019-04-20T06:43:45.643Z,61.91
2019-04-20T06:44:47.981Z,61.72
2019-04-20T06:45:43.645Z,61.43
2019-04-20T06:46:42.033Z,61.27
2019-04-20T06:47:38.669Z,60.99
2019-04-20T06:48:39.997Z,60.03
2019-04-20T06:49:32.703Z,59.86
2019-04-20T06:50:28.684Z,59.58
2019-04-20T06:51:27.470Z,59.38
2019-04-20T06:52:27.026Z,59
2019-04-20T06:53:31.733Z,58.64
2019-04-20T06:54:15.489Z,58.84
2019-04-20T06:55:19.438Z,57.88
2019-04-20T06:56:23.095Z,57.78
2019-04-20T06:57:23.826Z,57.78
2019-04-20T06:58:33.056Z,57.59
2019-04-20T06:59:25.624Z,57.5
2019-04-20T07:02:02.664Z,56.95
2019-04-20T07:02:53.733Z,56.95
2019-04-20T07:05:05.163Z,57.11
2019-04-20T07:06:05.913Z,57.23
2019-04-20T07:06:55.857Z,57.21
2019-04-20T07:07:51.089Z,57.52
2019-04-20T07:09:00.212Z,56.66
2019-04-20T07:10:51.217Z,56.27
2019-04-20T07:11:46.077Z,56.66
2019-04-20T07:12:40.759Z,56.4
2019-04-20T07:13:35.544Z,56.3
2019-04-20T07:14:32.780Z,55.82
2019-04-20T07:15:36.281Z,55.82
2019-04-20T07:16:40.436Z,55.53
2019-04-20T07:18:35.089Z,55.76
2019-04-20T07:19:28.465Z,54.99
2019-04-20T07:20:37.164Z,54.89
2019-04-20T07:21:43.505Z,54.69
2019-04-20T07:22:45.609Z,55.46
2019-04-20T07:23:30.990Z,55.08
2019-04-20T07:24:30.402Z,54.89
2019-04-20T07:25:30.762Z,54.69
2019-04-20T07:26:28.906Z,54.22
2019-04-20T07:27:22.394Z,54.12
2019-04-20T07:28:25.627Z,53.83
2019-04-20T07:29:25.452Z,53.92
2019-04-20T07:30:16.090Z,54.22
2019-04-20T07:31:17.988Z,53.74
2019-04-20T07:32:09.661Z,54
2019-04-20T07:33:21.341Z,54
2019-04-20T07:34:15.462Z,54.19
2019-04-20T07:35:13.896Z,53.54
2019-04-20T07:36:19.359Z,53.83
2019-04-20T07:37:34.972Z,53.7
2019-04-20T07:38:23.193Z,53.32
2019-04-20T07:39:13.091Z,54.12
2019-04-20T07:40:10.217Z,54.02
2019-04-20T07:42:07.860Z,54.12
2019-04-20T07:42:58.634Z,54.31
2019-04-20T07:44:17.955Z,54.22
2019-04-20T07:45:00.716Z,53.9
2019-04-20T07:45:59.980Z,53.83
2019-04-20T07:47:01.340Z,54.47
2019-04-20T07:48:01.217Z,54.5
2019-04-20T07:48:53.913Z,54.22
2019-04-20T07:49:49.477Z,54.22
2019-04-20T07:50:44.431Z,54.41
2019-04-20T07:51:35.313Z,54.41
2019-04-20T07:52:38.341Z,53.16
2019-04-20T07:53:40.109Z,53.54
2019-04-20T07:54:58.274Z,53.45
2019-04-20T07:56:42.055Z,54.09
2019-04-20T07:57:37.337Z,53.92
2019-04-20T07:58:30.349Z,54.22
2019-04-20T07:59:29.878Z,54.38
2019-04-20T08:00:48.035Z,54.77
2019-04-20T08:01:44.722Z,54.57
2019-04-20T08:02:42.335Z,54.57
2019-04-20T08:03:37.900Z,54.77
2019-04-20T08:04:32.226Z,54.57
2019-04-20T08:05:25.340Z,54.28
2019-04-20T08:06:17.883Z,54.47
2019-04-20T08:07:11.093Z,54.28
2019-04-20T08:08:22.236Z,54.38
2019-04-20T08:09:18.974Z,54.47
2019-04-20T08:10:09.707Z,54.02
2019-04-20T08:11:19.746Z,54.41
2019-04-20T08:12:25.465Z,54.31
2019-04-20T08:14:23.875Z,54
2019-04-20T08:15:29.579Z,54.19
2019-04-20T08:16:22.681Z,54.38
2019-04-20T08:17:19.925Z,54.19
2019-04-20T08:18:19.232Z,54.67
2019-04-20T08:19:09.605Z,54.47
2019-04-20T08:20:09.028Z,54.47
2019-04-20T08:21:07.946Z,54
2019-04-20T08:22:14.837Z,54.38
2019-04-20T08:23:04.511Z,54.5
2019-04-20T08:24:06.759Z,54.67
2019-04-20T08:24:55.066Z,54.38
2019-04-20T08:25:52.094Z,54.38
2019-04-20T08:26:50.106Z,54.38
2019-04-20T08:27:40.815Z,54.02
2019-04-20T08:28:48.426Z,54.31
2019-04-20T08:29:52.588Z,53.92
2019-04-20T08:30:51.112Z,54.28
2019-04-20T08:31:47.050Z,54.57
2019-04-20T08:32:50.462Z,54.41
2019-04-20T08:34:01.384Z,54.22
2019-04-20T08:34:53.190Z,54.12
2019-04-20T08:35:52.269Z,53.74
2019-04-20T08:36:50.709Z,53.64
2019-04-20T08:38:00.735Z,54.02
2019-04-20T08:39:05.669Z,53.35
2019-04-20T08:39:56.935Z,53.54
2019-04-20T08:40:43.377Z,53.64
2019-04-20T08:41:44.868Z,54.31
2019-04-20T08:42:49.444Z,53.35
2019-04-20T08:43:46.646Z,52.97
2019-04-20T08:45:41.387Z,53.06
2019-04-20T08:46:40.175Z,52.97
2019-04-20T08:48:32.685Z,53.25
2019-04-20T08:49:34.665Z,53.06
2019-04-20T08:50:26.783Z,52.77
2019-04-20T08:51:29.110Z,52.68
2019-04-20T08:52:46.333Z,53.35
2019-04-20T08:53:41.684Z,53.47
2019-04-20T08:54:21.522Z,52.99
2019-04-20T08:55:18.962Z,52.99
2019-04-20T08:56:13.871Z,52.8
2019-04-20T08:57:02.941Z,53.28
2019-04-20T08:57:59.911Z,53.09
2019-04-20T08:58:57.463Z,53.28
2019-04-20T08:59:56.128Z,53.76
2019-04-20T09:01:00.127Z,53.86
2019-04-20T09:01:53.540Z,53.57
2019-04-20T09:02:58.553Z,53.78
2019-04-20T09:03:58.730Z,53.47
2019-04-20T09:04:56.831Z,53.78
2019-04-20T09:05:57.645Z,53.31
2019-04-20T09:07:00.806Z,53.11
2019-04-20T09:07:56.338Z,52.8
2019-04-20T09:08:50.201Z,52.61
2019-04-20T09:10:09.898Z,52.51
2019-04-20T09:10:59.654Z,53.19
2019-04-20T09:12:14.318Z,52.99
2019-04-20T09:12:53.037Z,52.8
2019-04-20T09:13:42.982Z,52.92
2019-04-20T09:14:38.288Z,53.11
2019-04-20T09:15:36.265Z,52.61
2019-04-20T09:16:44.136Z,52.15
2019-04-20T09:17:39.571Z,51.86
2019-04-20T09:18:40.248Z,52.54
2019-04-20T09:19:39.754Z,52.92
2019-04-20T09:20:41.098Z,53.02
2019-04-20T09:21:38.630Z,52.15
2019-04-20T09:22:33.906Z,52.34
2019-04-20T09:23:36.158Z,52.25
2019-04-20T09:24:43.067Z,52.73
2019-04-20T09:26:36.925Z,52.34
2019-04-20T09:27:28.895Z,52.54
2019-04-20T09:28:28.346Z,51.67
2019-04-20T09:29:29.216Z,51.57
2019-04-20T09:30:27.743Z,51.29
2019-04-20T09:31:30.631Z,51.67
2019-04-20T09:32:28.260Z,50.99
2019-04-20T09:33:28.622Z,51.38
2019-04-20T09:34:24.479Z,51.48
2019-04-20T09:35:24.678Z,51.96
2019-04-20T09:36:23.514Z,51.96
2019-04-20T09:37:23.355Z,52.56
2019-04-20T09:38:18.897Z,52.44
2019-04-20T09:39:14.846Z,51.76
2019-04-20T09:40:20.023Z,52.06
2019-04-20T09:41:25.956Z,51.96
2019-04-20T09:42:01.577Z,51.89
2019-04-20T09:43:00.197Z,52.25
2019-04-20T09:43:58.303Z,51.57
2019-04-20T09:44:59.463Z,51.19
2019-04-20T09:45:59.953Z,51.38
2019-04-20T09:46:56.672Z,50.51
2019-04-20T09:47:54.870Z,50.99
2019-04-20T09:48:56.034Z,50.83
2019-04-20T09:50:00.614Z,50.93
2019-04-20T09:51:08.983Z,50.93
2019-04-20T09:52:01.256Z,51.12
2019-04-20T09:53:02.262Z,51.02
2019-04-20T09:53:54.772Z,50.83
2019-04-20T09:54:58.812Z,51.02
2019-04-20T09:55:56.629Z,51.02
2019-04-20T09:57:03.072Z,50.73
2019-04-20T09:57:57.268Z,50.83
2019-04-20T09:59:00.574Z,50.45
2019-04-20T09:59:53.517Z,50.93
2019-04-20T10:00:50.554Z,49.96
2019-04-20T10:01:41.754Z,50.35
2019-04-20T10:02:36.302Z,50.35
2019-04-20T10:03:31.676Z,49.48
2019-04-20T10:04:31.312Z,49.96
2019-04-20T10:05:29.541Z,49.68
2019-04-20T10:06:30.591Z,50.06
2019-04-20T10:07:31.106Z,49.19
2019-04-20T10:08:25.967Z,48.03
2019-04-20T10:09:27.753Z,47.94
2019-04-20T10:10:31.254Z,48.35
2019-04-20T10:11:21.415Z,48.16
2019-04-20T10:12:19.824Z,48.64
2019-04-20T10:13:19.516Z,48.61
2019-04-20T10:14:16.837Z,48.61
2019-04-20T10:15:19.379Z,48.03
2019-04-20T10:16:15.535Z,48.33
2019-04-20T10:17:13.730Z,48.03
2019-04-20T10:18:12.022Z,48.44
2019-04-20T10:19:11.851Z,48.16
2019-04-20T10:20:14.962Z,48.16
2019-04-20T10:21:07.637Z,48.16
2019-04-20T10:22:06.578Z,47.67
2019-04-20T10:23:04.681Z,47.87
2019-04-20T10:24:03.178Z,48.35
2019-04-20T10:25:02.619Z,47.19
2019-04-20T10:26:00.783Z,47
2019-04-20T10:27:00.708Z,47.39
2019-04-20T10:27:57.873Z,48.35
2019-04-20T10:28:57.446Z,47.19
2019-04-20T10:29:55.546Z,46.14
2019-04-20T10:30:54.712Z,46.14
2019-04-20T10:31:56.958Z,46.14
2019-04-20T10:32:53.918Z,47.1
2019-04-20T10:33:49.637Z,47.67
2019-04-20T10:34:48.504Z,47.49
2019-04-20T10:35:47.661Z,47
2019-04-20T10:36:45.873Z,46.42
2019-04-20T10:37:45.198Z,46.55
2019-04-20T10:38:42.628Z,46.45
2019-04-20T10:39:42.525Z,46.23
2019-04-20T10:40:50.629Z,47.03
2019-04-20T10:41:46.883Z,47.12
2019-04-20T10:42:38.241Z,47.03
2019-04-20T10:43:36.248Z,47.49
2019-04-20T10:44:34.778Z,47.39
2019-04-20T10:45:33.209Z,47.7
2019-04-20T10:46:33.203Z,47.03
2019-04-20T10:47:30.288Z,46.93
2019-04-20T10:51:08.994Z,46.93
2019-04-20T10:52:07.706Z,47.31
2019-04-20T10:53:06.238Z,47.7
2019-04-20T10:54:04.955Z,47.51
2019-04-20T10:55:03.494Z,47.12
2019-04-20T10:56:03.426Z,47.51
2019-04-20T10:57:01.479Z,47.7
2019-04-20T11:19:45.301Z,47.72
2019-04-20T11:20:43.596Z,47.72
2019-04-20T11:21:41.624Z,48.59
2019-04-20T11:22:40.343Z,48.59
2019-04-20T11:23:40.386Z,48.4
2019-04-20T11:24:38.553Z,48.4
2019-04-20T11:25:36.389Z,48.59
2019-04-20T11:26:36.943Z,48.49
2019-04-20T11:27:34.158Z,48.4
2019-04-20T11:28:32.643Z,48.4
2019-04-20T11:29:31.877Z,48.4
2019-04-20T11:30:30.053Z,48.42
2019-04-20T11:31:36.164Z,47.75
2019-04-20T11:32:28.279Z,47.65
2019-04-20T11:33:25.697Z,47.55
2019-04-20T11:34:28.304Z,47.45
2019-04-20T11:35:30.193Z,47.07
2019-04-20T11:36:21.710Z,47.55
2019-04-20T11:37:21.297Z,47.55
2019-04-20T11:38:19.695Z,47.45
2019-04-20T11:39:18.819Z,47.07
2019-04-20T11:40:16.978Z,46.69
2019-04-20T11:41:21.333Z,46.59
2019-04-20T11:42:13.949Z,46.3
2019-04-20T11:43:13.271Z,46.2
2019-04-20T11:44:11.688Z,46.01
2019-04-20T11:45:10.817Z,46.11
2019-04-20T11:46:08.964Z,46.01
2019-04-20T11:47:06.840Z,45.72
2019-04-20T11:48:05.516Z,45.53
2019-04-20T11:49:05.560Z,45.62
2019-04-20T11:50:03.735Z,46.01
2019-04-20T11:51:01.521Z,46.11
2019-04-20T11:52:01.478Z,46.2
2019-04-20T11:52:59.298Z,46.59
2019-04-20T11:53:58.497Z,46.2
2019-04-20T11:54:56.301Z,45.43
2019-04-20T11:55:56.217Z,44.68
2019-04-20T11:56:53.519Z,44.87
2019-04-20T11:57:52.172Z,44.59
2019-04-20T11:58:51.054Z,44.78
2019-04-20T11:59:50.800Z,44.66
2019-04-20T12:00:55.939Z,44.39
2019-04-20T12:01:51.784Z,44.39
2019-04-20T12:02:47.602Z,44.39
2019-04-20T12:03:51.663Z,44.39
2019-04-20T12:04:49.812Z,44.68
2019-04-20T12:05:45.807Z,44.78
2019-04-20T12:06:40.762Z,44.49
2019-04-20T12:07:38.454Z,44.29
2019-04-20T12:08:39.197Z,43.52
2019-04-20T12:09:35.577Z,44.01
2019-04-20T12:10:34.989Z,42.75
2019-04-20T12:11:42.676Z,42.08
2019-04-20T12:12:38.870Z,42.94
2019-04-20T12:13:30.953Z,41.98
2019-04-20T12:14:30.369Z,42.27
2019-04-20T12:15:28.920Z,42.18
2019-04-20T12:16:26.192Z,41.98
2019-04-20T12:17:25.931Z,41.88
2019-04-20T12:18:23.494Z,42.08
2019-04-20T12:19:22.874Z,41.98
2019-04-20T12:20:20.945Z,42.46
2019-04-20T12:21:19.295Z,43.14
2019-04-20T12:22:18.052Z,42.94
2019-04-20T12:23:17.797Z,42.18
2019-04-20T12:24:16.345Z,42.1
2019-04-20T12:25:14.210Z,41.88
2019-04-20T12:26:13.013Z,41.11
2019-04-20T12:27:10.909Z,40.82
2019-04-20T12:28:09.664Z,40.82
2019-04-20T12:29:09.809Z,41.02
2019-04-20T12:30:07.840Z,40.24
2019-04-20T12:31:11.801Z,39.76
2019-04-20T12:32:05.867Z,40.15
2019-04-20T12:33:03.827Z,40.07
2019-04-20T12:34:02.253Z,39.76
2019-04-20T12:35:00.453Z,39.87
2019-04-20T12:36:00.071Z,39.49
2019-04-20T12:36:58.432Z,38.91
2019-04-20T12:37:56.858Z,38.91
2019-04-20T12:38:55.078Z,38.71
2019-04-20T12:39:53.580Z,38.62
2019-04-20T12:40:52.552Z,39.01
2019-04-20T12:41:56.394Z,39.39
2019-04-20T12:42:50.833Z,38.91
2019-04-20T12:43:49.718Z,39.11
2019-04-20T12:44:47.934Z,38.53
2019-04-20T12:45:45.633Z,38.14
2019-04-20T12:46:45.753Z,38.14
2019-04-20T12:47:46.299Z,38.53
2019-04-20T12:48:41.860Z,38.81
2019-04-20T12:49:41.331Z,38.53
2019-04-20T12:50:39.525Z,38.62
2019-04-20T12:51:45.345Z,37.65
2019-04-20T12:52:36.557Z,37.56
2019-04-20T12:53:35.037Z,37.75
2019-04-20T12:54:34.429Z,37.27
2019-04-20T12:55:32.615Z,37.29
2019-04-20T12:56:30.992Z,37.38
2019-04-20T12:57:29.527Z,37
2019-04-20T12:58:28.472Z,36.9
2019-04-20T12:59:27.511Z,37.1
2019-04-20T13:00:25.707Z,36.42
2019-04-20T13:01:25.787Z,36.52
2019-04-20T13:02:23.191Z,36.03
2019-04-20T13:03:21.622Z,36.9
2019-04-20T13:04:20.656Z,36.03
2019-04-20T13:05:19.535Z,36.13
2019-04-20T13:06:17.631Z,35.74
2019-04-20T13:07:17.675Z,36.03
2019-04-20T13:08:21.597Z,35.55
2019-04-20T13:09:14.562Z,35.45
2019-04-20T13:10:13.577Z,35.55
2019-04-20T13:11:11.087Z,35.64
2019-04-20T13:12:11.951Z,35.55
2019-04-20T13:13:10.246Z,35.45
2019-04-20T13:14:08.315Z,34.48
2019-04-20T13:15:06.520Z,34.29
2019-04-20T13:16:04.713Z,34.58
2019-04-20T13:17:04.146Z,35.36
2019-04-20T13:18:03.154Z,35.26
2019-04-20T13:19:01.481Z,34.68
2019-04-20T13:19:59.513Z,34.39
2019-04-20T13:20:58.828Z,34.58
2019-04-20T13:21:56.850Z,34.87
2019-04-20T13:22:55.176Z,34.97
2019-04-20T13:23:53.701Z,35.16
2019-04-20T13:24:52.784Z,34.58
2019-04-20T13:25:50.953Z,34.78
2019-04-20T13:26:49.474Z,34.48
2019-04-20T13:27:49.096Z,34.48
2019-04-20T13:28:46.895Z,34.41
2019-04-20T13:29:47.755Z,34.21
2019-04-20T13:30:44.100Z,33.91
2019-04-20T13:31:43.809Z,34.29
2019-04-20T13:32:41.524Z,34
2019-04-20T13:33:41.088Z,33.04
2019-04-20T13:36:20.293Z,34.39
2019-04-20T13:37:20.092Z,34.2
2019-04-20T13:38:18.315Z,33.52
2019-04-20T13:39:16.564Z,32.94
2019-04-20T13:40:15.635Z,33.72
2019-04-20T13:41:13.734Z,34.12
2019-04-20T13:42:19.024Z,33.92
2019-04-20T14:05:14.670Z,32.38